createdAt,value
2019-05-14T00:00:16.781Z,45.2250
2019-05-14T00:00:26.541Z,45.2500
2019-05-14T00:00:41.748Z,49.8463
2019-05-14T00:00:55.461Z,62.0000
2019-05-14T00:01:15.969Z,338.1334
2019-05-14T00:01:36.140Z,67.1353
2019-05-14T00:01:44.828Z,98.6503
2019-05-14T00:01:56.701Z,99.2254
2019-05-14T00:02:14.941Z,77.5500
2019-05-14T00:02:26.811Z,77.5500
2019-05-14T00:02:36.486Z,77.7250
2019-05-14T00:02:46.157Z,77.4751
2019-05-14T00:02:55.883Z,77.4000
2019-05-14T00:03:05.566Z,77.3000
2019-05-14T00:03:15.270Z,77.3751
2019-05-14T00:03:24.959Z,77.7001
2019-05-14T00:03:36.816Z,77.9000
2019-05-14T00:03:46.570Z,77.5000
2019-05-14T00:03:56.256Z,77.5750
2019-05-14T00:04:05.952Z,77.7000
2019-05-14T00:04:15.623Z,65.9999
2019-05-14T00:04:35.008Z,65.3750
2019-05-14T00:04:44.717Z,66.4248
2019-05-14T00:04:56.593Z,112.4004
2019-05-14T00:05:06.338Z,112.5005
2019-05-14T00:05:16.030Z,112.4504
2019-05-14T00:05:25.728Z,0.7557
2019-05-14T00:05:35.449Z,17.6269
2019-05-14T00:05:45.126Z,1.0998
2019-05-14T00:05:54.867Z,32.7726
2019-05-14T00:06:06.770Z,65.0500
2019-05-14T00:06:25.180Z,60.5250
2019-05-14T00:06:34.851Z,59.2000
2019-05-14T00:06:45.598Z,11.9953
2019-05-14T00:06:55.291Z,5.7500
2019-05-14T00:07:05.025Z,5.8500
2019-05-14T00:07:14.701Z,6.3000
2019-05-14T00:07:26.573Z,6.7500
2019-05-14T00:07:46.040Z,58.9989
2019-05-14T00:07:55.746Z,73.7843
2019-05-14T00:08:05.417Z,76.3752
2019-05-14T00:08:17.570Z,75.2750
2019-05-14T00:08:25.246Z,75.5998
2019-05-14T00:08:35.961Z,103.0151
2019-05-14T00:08:45.709Z,117.0754
2019-05-14T00:08:55.427Z,116.7004
2019-05-14T00:09:05.156Z,116.5504
2019-05-14T00:09:14.859Z,116.5255
2019-05-14T00:09:26.709Z,101.0681
2019-05-14T00:09:45.100Z,104.3277
2019-05-14T00:09:54.816Z,90.6506
2019-05-14T00:10:06.690Z,90.0254
2019-05-14T00:10:15.210Z,93.8754
2019-05-14T00:10:24.889Z,89.9159
2019-05-14T00:10:35.618Z,56.9750
2019-05-14T00:10:45.608Z,70.0878
2019-05-14T00:10:55.366Z,26.7000
2019-05-14T00:11:06.040Z,37.0500
2019-05-14T00:11:15.737Z,63.1250
2019-05-14T00:11:25.437Z,64.5000
2019-05-14T00:11:35.148Z,13.5000
2019-05-14T00:11:45.827Z,18.8250
2019-05-14T00:11:55.527Z,97.5254
2019-05-14T00:12:05.189Z,31.7500
2019-05-14T00:12:14.890Z,31.7750
2019-05-14T00:12:25.757Z,31.9000
2019-05-14T00:12:35.476Z,31.8750
2019-05-14T00:12:45.154Z,40.7750
2019-05-14T00:12:54.870Z,40.4500
2019-05-14T00:13:05.536Z,41.4000
2019-05-14T00:13:15.208Z,41.2750
2019-05-14T00:13:25.010Z,42.5000
2019-05-14T00:13:34.737Z,147.3248
2019-05-14T00:13:45.417Z,148.5179
2019-05-14T00:13:58.169Z,30.4750
2019-05-14T00:14:05.717Z,30.3250
2019-05-14T00:14:15.443Z,30.3250
2019-05-14T00:14:36.542Z,36.2003
2019-05-14T00:14:40.099Z,63.5250
2019-05-14T00:14:54.972Z,293.2746
2019-05-14T00:15:06.815Z,86.8768
2019-05-14T00:15:16.520Z,65.4504
2019-05-14T00:15:26.210Z,28.7500
2019-05-14T00:15:35.906Z,28.9750
2019-05-14T00:15:45.577Z,28.5250
2019-05-14T00:15:55.268Z,28.6250
2019-05-14T00:16:04.928Z,28.7000
2019-05-14T00:16:16.760Z,176.5521
2019-05-14T00:16:26.443Z,126.6724
2019-05-14T00:16:36.158Z,152.5357
2019-05-14T00:16:45.874Z,137.8502
2019-05-14T00:16:55.588Z,137.6754
2019-05-14T00:17:05.237Z,138.2005
2019-05-14T00:17:14.907Z,138.0503
2019-05-14T00:17:26.750Z,355.3011
2019-05-14T00:17:56.640Z,107.2754
2019-05-14T00:18:06.314Z,102.5754
2019-05-14T00:18:16.004Z,64.6750
2019-05-14T00:18:25.752Z,82.7749
2019-05-14T00:18:35.400Z,32.8212
2019-05-14T00:18:45.079Z,145.3877
2019-05-14T00:18:55.971Z,23.9043
2019-05-14T00:19:05.637Z,62.7998
2019-05-14T00:19:16.323Z,80.1000
2019-05-14T00:19:24.824Z,80.2499
2019-05-14T00:19:36.684Z,80.0750
2019-05-14T00:19:46.394Z,83.4283
2019-05-14T00:20:07.309Z,127.0004
2019-05-14T00:20:09.332Z,132.3017
2019-05-14T00:20:15.471Z,88.1529
2019-05-14T00:20:25.183Z,78.0500
2019-05-14T00:20:34.868Z,77.9750
2019-05-14T00:20:55.429Z,20.5500
2019-05-14T00:21:05.099Z,32.2750
2019-05-14T00:21:14.781Z,116.2505
2019-05-14T00:21:26.672Z,64.0140
2019-05-14T00:21:36.379Z,55.4251
2019-05-14T00:21:44.895Z,77.4381
2019-05-14T00:21:56.729Z,74.3203
2019-05-14T00:22:06.429Z,72.6250
2019-05-14T00:22:16.118Z,72.3000
2019-05-14T00:22:25.789Z,67.9750
2019-05-14T00:22:46.391Z,39.0867
2019-05-14T00:22:56.087Z,89.8749
2019-05-14T00:23:04.744Z,89.3250
2019-05-14T00:23:16.654Z,90.0755
2019-05-14T00:23:26.612Z,90.1004
2019-05-14T00:23:36.268Z,92.5254
2019-05-14T00:23:45.958Z,92.8504
2019-05-14T00:24:01.861Z,31.7000
2019-05-14T00:24:05.760Z,31.4500
2019-05-14T00:24:14.788Z,32.8250
2019-05-14T00:24:26.672Z,34.4250
2019-05-14T00:24:36.402Z,66.2107
2019-05-14T00:24:46.098Z,77.6000
2019-05-14T00:24:55.776Z,77.6000
2019-05-14T00:25:05.491Z,77.6750
2019-05-14T00:25:15.176Z,77.8500
2019-05-14T00:25:24.915Z,77.7500
2019-05-14T00:25:46.515Z,77.6500
2019-05-14T00:25:55.227Z,77.6500
2019-05-14T00:26:04.920Z,188.7097
2019-05-14T00:26:15.595Z,127.6739
2019-05-14T00:26:25.302Z,35.4741
2019-05-14T00:26:36.031Z,47.9750
2019-05-14T00:26:45.756Z,85.2500
2019-05-14T00:26:55.482Z,86.6249
2019-05-14T00:27:05.198Z,85.7750
2019-05-14T00:27:14.874Z,85.6250
2019-05-14T00:27:35.483Z,51.9000
2019-05-14T00:27:56.082Z,67.9000
2019-05-14T00:28:05.776Z,67.9750
2019-05-14T00:28:15.492Z,67.9000
2019-05-14T00:28:25.173Z,67.6000
2019-05-14T00:28:35.048Z,67.5500
2019-05-14T00:28:44.856Z,67.5250
2019-05-14T00:28:55.575Z,67.5500
2019-05-14T00:29:05.268Z,67.7500
2019-05-14T00:29:14.961Z,67.5500
2019-05-14T00:29:26.872Z,67.7500
2019-05-14T00:29:36.582Z,67.8250
2019-05-14T00:29:55.996Z,157.8644
2019-05-14T00:30:05.721Z,136.9392
2019-05-14T00:30:15.451Z,95.8004
2019-05-14T00:30:25.181Z,95.8004
2019-05-14T00:30:34.882Z,96.0005
2019-05-14T00:30:46.802Z,98.1004
2019-05-14T00:30:56.506Z,74.2873
2019-05-14T00:31:06.431Z,77.8502
2019-05-14T00:31:16.138Z,77.3250
2019-05-14T00:31:26.893Z,77.2000
2019-05-14T00:31:35.442Z,77.3000
2019-05-14T00:31:45.147Z,77.1250
2019-05-14T00:31:55.882Z,13.8000
2019-05-14T00:32:05.587Z,15.9000
2019-05-14T00:32:15.267Z,118.1032
2019-05-14T00:32:25.004Z,152.7754
2019-05-14T00:32:34.716Z,108.3504
2019-05-14T00:32:46.651Z,108.1504
2019-05-14T00:32:56.362Z,108.0005
2019-05-14T00:33:06.062Z,109.2256
2019-05-14T00:33:16.754Z,108.4505
2019-05-14T00:33:37.932Z,108.4254
2019-05-14T00:33:45.426Z,108.1754
2019-05-14T00:33:55.132Z,108.2254
2019-05-14T00:34:04.827Z,95.4755
2019-05-14T00:34:16.682Z,94.6255
2019-05-14T00:34:26.417Z,50.9963
2019-05-14T00:34:34.963Z,314.4508
2019-05-14T00:34:46.825Z,34.3500
2019-05-14T00:34:56.553Z,50.0000
2019-05-14T00:35:06.245Z,65.0955
2019-05-14T00:35:24.708Z,35.5695
2019-05-14T00:35:36.606Z,81.9562
2019-05-14T00:35:46.321Z,40.9981
2019-05-14T00:35:56.051Z,48.7249
2019-05-14T00:36:04.743Z,36.4502
2019-05-14T00:36:16.628Z,49.9750
2019-05-14T00:36:25.163Z,77.8712
2019-05-14T00:36:34.912Z,87.5501
2019-05-14T00:36:46.788Z,66.8000
2019-05-14T00:36:56.472Z,68.8000
2019-05-14T00:37:05.188Z,74.6750
2019-05-14T00:37:15.893Z,88.4020
2019-05-14T00:37:26.565Z,94.1502
2019-05-14T00:37:35.094Z,79.2901
2019-05-14T00:37:44.767Z,83.5999
2019-05-14T00:37:56.645Z,61.9250
2019-05-14T00:38:05.217Z,61.9000
2019-05-14T00:38:14.911Z,61.8000
2019-05-14T00:38:25.943Z,61.7500
2019-05-14T00:38:35.732Z,62.0751
2019-05-14T00:38:45.442Z,62.1000
2019-05-14T00:38:55.138Z,79.9889
2019-05-14T00:39:04.852Z,13.7202
2019-05-14T00:39:16.754Z,42.4750
2019-05-14T00:39:26.495Z,62.4000
2019-05-14T00:39:37.191Z,62.5500
2019-05-14T00:39:44.715Z,62.4000
2019-05-14T00:39:55.421Z,80.7250
2019-05-14T00:40:05.114Z,80.8500
2019-05-14T00:40:14.864Z,80.6500
2019-05-14T00:40:26.706Z,94.4504
2019-05-14T00:40:36.396Z,94.4254
2019-05-14T00:40:46.114Z,94.5254
2019-05-14T00:40:55.862Z,94.4254
2019-05-14T00:41:05.555Z,94.5004
2019-05-14T00:41:15.261Z,94.2505
2019-05-14T00:41:25.952Z,92.4212
2019-05-14T00:41:35.771Z,334.8503
2019-05-14T00:41:45.687Z,334.6508
2019-05-14T00:41:55.422Z,338.2739
2019-05-14T00:42:05.111Z,67.2750
2019-05-14T00:42:14.831Z,63.0500
2019-05-14T00:42:25.569Z,62.8000
2019-05-14T00:42:35.306Z,63.0500
2019-05-14T00:42:45.035Z,63.0750
2019-05-14T00:42:54.714Z,10.4085
2019-05-14T00:43:05.396Z,14.7500
2019-05-14T00:43:15.104Z,14.7250
2019-05-14T00:43:24.796Z,61.6468
2019-05-14T00:43:36.666Z,37.6000
2019-05-14T00:43:46.405Z,37.6500
2019-05-14T00:43:56.114Z,30.8500
2019-05-14T00:44:05.811Z,327.3508
2019-05-14T00:44:15.526Z,345.1878
2019-05-14T00:44:25.246Z,0.0000
2019-05-14T00:44:34.965Z,0.0000
2019-05-14T00:44:54.341Z,0.0000
2019-05-14T00:44:57.946Z,0.0000
2019-05-14T00:45:05.626Z,0.0000
2019-05-14T00:45:16.379Z,0.0000
2019-05-14T00:45:26.072Z,344.6508
2019-05-14T00:45:36.774Z,24.0000
2019-05-14T00:45:46.494Z,26.3000
2019-05-14T00:45:56.161Z,50.3234
2019-05-14T00:46:05.913Z,48.9000
2019-05-14T00:46:15.640Z,48.5000
2019-05-14T00:46:25.352Z,48.0250
2019-05-14T00:46:35.041Z,48.5502
2019-05-14T00:46:44.736Z,48.2500
2019-05-14T00:46:56.715Z,24.6432
2019-05-14T00:47:06.387Z,168.6895
2019-05-14T00:47:14.906Z,123.2004
2019-05-14T00:47:27.012Z,118.9754
2019-05-14T00:47:36.703Z,119.7004
2019-05-14T00:47:46.394Z,122.4754
2019-05-14T00:47:56.146Z,114.3005
2019-05-14T00:48:05.856Z,114.1253
2019-05-14T00:48:15.562Z,114.1004
2019-05-14T00:48:25.308Z,100.6581
2019-05-14T00:48:37.013Z,88.2000
2019-05-14T00:48:46.696Z,88.2250
2019-05-14T00:48:56.401Z,88.3249
2019-05-14T00:49:05.076Z,183.1753
2019-05-14T00:49:14.776Z,182.6752
2019-05-14T00:49:26.674Z,182.6504
2019-05-14T00:49:36.419Z,182.8254
2019-05-14T00:49:46.152Z,181.8007
2019-05-14T00:49:55.822Z,85.2250
2019-05-14T00:50:05.562Z,85.0500
2019-05-14T00:50:15.306Z,85.1500
2019-05-14T00:50:25.075Z,47.0000
2019-05-14T00:50:34.803Z,21.3753
2019-05-14T00:50:45.692Z,22.9500
2019-05-14T00:50:55.406Z,23.0000
2019-05-14T00:51:06.271Z,71.8750
2019-05-14T00:51:15.946Z,78.9251
2019-05-14T00:51:25.668Z,326.2007
2019-05-14T00:51:35.389Z,6.4161
2019-05-14T00:51:45.124Z,28.0540
2019-05-14T00:51:54.859Z,58.1250
2019-05-14T00:52:05.562Z,107.3254
2019-05-14T00:52:15.251Z,180.4244
2019-05-14T00:52:24.963Z,136.4004
2019-05-14T00:52:36.834Z,38.0474
2019-05-14T00:52:46.549Z,63.9500
2019-05-14T00:52:56.245Z,63.4500
2019-05-14T00:53:05.931Z,63.2750
2019-05-14T00:53:15.767Z,58.2499
2019-05-14T00:53:25.485Z,57.5750
2019-05-14T00:53:36.175Z,92.6698
2019-05-14T00:53:45.932Z,110.2772
2019-05-14T00:53:55.634Z,99.8254
2019-05-14T00:54:05.318Z,79.3500
2019-05-14T00:54:16.065Z,53.0166
2019-05-14T00:54:25.775Z,0.0000
2019-05-14T00:54:35.487Z,0.0000
2019-05-14T00:54:45.250Z,0.2500
2019-05-14T00:54:54.956Z,22.5247
2019-05-14T00:55:05.646Z,18.3980
2019-05-14T00:55:16.604Z,34.3235
2019-05-14T00:55:26.329Z,11.1500
2019-05-14T00:55:36.077Z,9.0250
2019-05-14T00:55:45.801Z,40.0750
2019-05-14T00:56:06.591Z,45.3742
2019-05-14T00:56:25.085Z,74.6501
2019-05-14T00:56:34.843Z,74.3500
2019-05-14T00:56:46.802Z,74.8500
2019-05-14T00:56:55.555Z,74.4000
2019-05-14T00:57:05.331Z,74.6750
2019-05-14T00:57:15.083Z,61.2250
2019-05-14T00:57:24.816Z,47.0500
2019-05-14T00:57:36.763Z,48.7250
2019-05-14T00:57:46.443Z,48.9000
2019-05-14T00:57:56.232Z,48.7500
2019-05-14T00:58:16.865Z,48.3500
2019-05-14T00:58:26.566Z,48.5000
2019-05-14T00:58:35.072Z,48.3250
2019-05-14T00:58:45.975Z,48.4500
2019-05-14T00:58:55.701Z,48.2000
2019-05-14T00:59:05.531Z,48.1500
2019-05-14T00:59:15.245Z,79.9257
2019-05-14T00:59:24.957Z,85.7233
2019-05-14T00:59:36.817Z,121.8973
2019-05-14T00:59:46.556Z,118.3504
2019-05-14T00:59:56.278Z,119.5255
2019-05-14T01:00:04.785Z,119.4752
2019-05-14T01:00:16.737Z,119.4504
2019-05-14T01:00:26.437Z,119.5004
2019-05-14T01:00:36.147Z,119.4253
2019-05-14T01:00:45.824Z,119.3004
2019-05-14T01:00:55.538Z,335.9008
2019-05-14T01:01:08.032Z,337.8759
2019-05-14T01:01:16.722Z,337.4508
2019-05-14T01:01:26.422Z,336.8008
2019-05-14T01:01:36.092Z,336.9508
2019-05-14T01:01:45.800Z,337.0758
2019-05-14T01:01:55.492Z,338.7557
2019-05-14T01:02:05.188Z,338.9462
2019-05-14T01:02:14.866Z,337.1761
2019-05-14T01:02:26.765Z,337.0508
2019-05-14T01:02:36.476Z,21.6000
2019-05-14T01:02:46.157Z,21.5500
2019-05-14T01:02:59.134Z,94.0127
2019-05-14T01:03:14.711Z,82.7011
2019-05-14T01:03:26.574Z,116.8744
2019-05-14T01:03:45.943Z,0.0000
2019-05-14T01:03:55.646Z,44.6251
2019-05-14T01:04:05.334Z,46.5250
2019-05-14T01:04:15.005Z,63.1751
2019-05-14T01:04:26.854Z,12.5490
2019-05-14T01:04:36.582Z,22.7485
2019-05-14T01:04:46.261Z,38.5750
2019-05-14T01:04:55.935Z,6.4001
2019-05-14T01:05:05.642Z,5.6000
2019-05-14T01:05:15.405Z,3.9500
2019-05-14T01:05:25.121Z,4.0000
2019-05-14T01:05:34.801Z,4.0250
2019-05-14T01:05:45.702Z,4.0000
2019-05-14T01:05:55.405Z,4.0500
2019-05-14T01:06:05.111Z,10.6000
2019-05-14T01:06:14.795Z,101.9592
2019-05-14T01:06:26.661Z,113.8254
2019-05-14T01:06:36.944Z,113.6503
2019-05-14T01:06:45.497Z,115.5005
2019-05-14T01:06:55.174Z,106.6754
2019-05-14T01:07:04.864Z,83.1568
2019-05-14T01:07:16.772Z,65.6500
2019-05-14T01:07:26.511Z,25.7731
2019-05-14T01:07:35.254Z,114.8754
2019-05-14T01:07:44.951Z,119.9255
2019-05-14T01:07:56.794Z,120.2500
2019-05-14T01:08:06.486Z,119.8004
2019-05-14T01:08:16.185Z,119.5504
2019-05-14T01:08:25.873Z,119.6754
2019-05-14T01:08:35.581Z,119.6255
2019-05-14T01:08:45.281Z,120.1504
2019-05-14T01:08:54.987Z,119.7253
2019-05-14T01:09:16.736Z,119.6254
2019-05-14T01:09:26.454Z,119.5255
2019-05-14T01:09:36.161Z,119.9251
2019-05-14T01:09:45.853Z,119.7004
2019-05-14T01:09:55.543Z,119.9004
2019-05-14T01:10:05.243Z,51.8752
2019-05-14T01:10:14.986Z,53.2250
2019-05-14T01:10:25.806Z,53.2000
2019-05-14T01:10:35.496Z,53.4000
2019-05-14T01:10:45.176Z,53.4500
2019-05-14T01:10:54.856Z,18.8250
2019-05-14T01:11:06.694Z,23.3750
2019-05-14T01:11:16.412Z,24.4250
2019-05-14T01:11:26.133Z,24.3000
2019-05-14T01:11:35.812Z,24.4750
2019-05-14T01:11:46.675Z,24.8750
2019-05-14T01:11:56.383Z,24.5250
2019-05-14T01:12:06.061Z,24.7000
2019-05-14T01:12:16.730Z,24.5000
2019-05-14T01:12:25.273Z,115.3722
2019-05-14T01:12:34.975Z,104.2505
2019-05-14T01:12:44.728Z,103.8004
2019-05-14T01:12:55.431Z,103.3754
2019-05-14T01:13:05.126Z,103.6754
2019-05-14T01:13:14.846Z,103.5254
2019-05-14T01:13:26.692Z,103.6754
2019-05-14T01:13:35.406Z,111.2255
2019-05-14T01:13:45.084Z,110.9505
2019-05-14T01:13:54.782Z,113.5504
2019-05-14T01:14:06.634Z,113.6004
2019-05-14T01:14:16.342Z,113.7504
2019-05-14T01:14:26.068Z,112.7750
2019-05-14T01:14:35.770Z,83.7204
2019-05-14T01:14:48.256Z,94.4754
2019-05-14T01:15:07.812Z,68.5529
2019-05-14T01:15:15.571Z,97.9504
2019-05-14T01:15:25.284Z,97.7004
2019-05-14T01:15:34.972Z,98.0754
2019-05-14T01:15:46.842Z,95.1504
2019-05-14T01:15:56.532Z,89.1475
2019-05-14T01:16:05.040Z,336.3400
2019-05-14T01:16:14.694Z,41.1000
2019-05-14T01:16:26.540Z,39.9239
2019-05-14T01:16:35.032Z,76.6249
2019-05-14T01:16:45.709Z,47.8250
2019-05-14T01:16:55.394Z,34.0498
2019-05-14T01:17:05.092Z,19.6750
2019-05-14T01:17:14.760Z,1.2000
2019-05-14T01:17:25.640Z,39.5526
2019-05-14T01:17:35.350Z,73.7663
2019-05-14T01:17:46.040Z,18.0158
2019-05-14T01:17:55.723Z,44.8750
2019-05-14T01:18:05.433Z,31.9000
2019-05-14T01:18:15.129Z,33.5750
2019-05-14T01:18:24.781Z,33.9250
2019-05-14T01:18:36.703Z,34.2750
2019-05-14T01:18:46.393Z,33.9250
2019-05-14T01:18:56.099Z,26.6000
2019-05-14T01:19:05.821Z,26.6000
2019-05-14T01:19:16.499Z,26.4250
2019-05-14T01:19:26.229Z,26.5500
2019-05-14T01:19:35.953Z,26.5500
2019-05-14T01:19:45.631Z,30.8001
2019-05-14T01:19:55.311Z,40.0500
2019-05-14T01:20:05.024Z,43.5750
2019-05-14T01:20:15.892Z,43.4500
2019-05-14T01:20:25.638Z,43.6500
2019-05-14T01:20:35.526Z,69.2117
2019-05-14T01:20:45.213Z,71.6000
2019-05-14T01:20:55.935Z,71.6250
2019-05-14T01:21:05.649Z,71.7500
2019-05-14T01:21:15.361Z,90.2746
2019-05-14T01:21:25.028Z,149.9005
2019-05-14T01:21:34.723Z,147.4289
2019-05-14T01:21:46.625Z,114.9248
2019-05-14T01:21:57.359Z,111.2754
2019-05-14T01:22:04.903Z,111.3753
2019-05-14T01:22:16.773Z,69.7198
2019-05-14T01:22:26.483Z,62.0500
2019-05-14T01:22:36.209Z,65.3750
2019-05-14T01:22:45.971Z,77.5250
2019-05-14T01:22:55.677Z,4.5254
2019-05-14T01:23:16.253Z,23.6250
2019-05-14T01:23:25.953Z,23.5000
2019-05-14T01:23:35.662Z,23.6500
2019-05-14T01:23:45.609Z,23.7750
2019-05-14T01:23:55.319Z,23.5750
2019-05-14T01:24:05.064Z,19.2744
2019-05-14T01:24:15.742Z,0.0000
2019-05-14T01:24:25.440Z,0.0000
2019-05-14T01:24:35.159Z,0.0000
2019-05-14T01:24:44.841Z,0.0250
2019-05-14T01:24:56.704Z,0.0000
2019-05-14T01:25:06.364Z,0.0000
2019-05-14T01:25:16.045Z,0.0000
2019-05-14T01:25:25.833Z,0.0000
2019-05-14T01:25:35.515Z,0.0000
2019-05-14T01:25:45.212Z,0.0000
2019-05-14T01:25:54.912Z,0.0000
2019-05-14T01:26:05.581Z,0.0000
2019-05-14T01:26:15.287Z,0.0000
2019-05-14T01:26:25.020Z,0.0000
2019-05-14T01:26:34.751Z,0.0000
2019-05-14T01:26:52.080Z,0.0000
2019-05-14T01:26:56.186Z,0.0000
2019-05-14T01:27:12.387Z,0.0000
2019-05-14T01:27:15.866Z,0.0000
2019-05-14T01:27:25.538Z,28.4585
2019-05-14T01:27:35.180Z,30.8000
2019-05-14T01:27:44.843Z,38.5000
2019-05-14T01:27:56.678Z,38.5000
2019-05-14T01:28:06.370Z,38.4000
2019-05-14T01:28:16.056Z,38.5500
2019-05-14T01:28:25.748Z,38.5250
2019-05-14T01:28:36.441Z,38.2750
2019-05-14T01:28:46.148Z,38.1000
2019-05-14T01:29:01.526Z,35.2500
2019-05-14T01:29:05.358Z,35.9750
2019-05-14T01:29:15.220Z,35.4750
2019-05-14T01:29:31.654Z,35.2250
2019-05-14T01:29:35.605Z,35.3000
2019-05-14T01:29:45.439Z,35.1000
2019-05-14T01:29:55.121Z,35.1750
2019-05-14T01:30:04.782Z,35.2250
2019-05-14T01:30:16.635Z,37.4500
2019-05-14T01:30:26.382Z,37.5750
2019-05-14T01:30:36.071Z,37.7750
2019-05-14T01:30:45.740Z,0.0000
2019-05-14T01:30:55.468Z,4.7250
2019-05-14T01:31:05.278Z,4.8750
2019-05-14T01:31:15.152Z,4.9750
2019-05-14T01:31:24.828Z,121.2503
2019-05-14T01:31:36.682Z,121.3254
2019-05-14T01:31:46.546Z,121.5256
2019-05-14T01:31:56.209Z,121.1004
2019-05-14T01:32:06.000Z,335.4626
2019-05-14T01:32:15.680Z,12.4250
2019-05-14T01:32:25.416Z,9.8992
2019-05-14T01:32:35.107Z,23.5750
2019-05-14T01:32:46.996Z,55.3564
2019-05-14T01:32:56.699Z,50.6000
2019-05-14T01:33:06.407Z,51.1749
2019-05-14T01:33:16.060Z,50.6000
2019-05-14T01:33:25.770Z,50.6500
2019-05-14T01:33:35.495Z,50.7750
2019-05-14T01:33:45.240Z,20.1500
2019-05-14T01:33:54.936Z,19.4750
2019-05-14T01:34:07.766Z,19.6000
2019-05-14T01:34:16.609Z,19.6500
2019-05-14T01:34:26.293Z,19.6500
2019-05-14T01:34:35.986Z,19.7250
2019-05-14T01:34:45.678Z,19.7500
2019-05-14T01:34:55.388Z,19.7500
2019-05-14T01:35:06.090Z,19.6250
2019-05-14T01:35:15.808Z,31.7750
2019-05-14T01:35:25.536Z,31.8750
2019-05-14T01:35:35.245Z,32.4000
2019-05-14T01:35:45.010Z,31.7000
2019-05-14T01:36:02.038Z,31.9500
2019-05-14T01:36:06.101Z,82.6000
2019-05-14T01:36:15.089Z,86.2000
2019-05-14T01:36:25.965Z,86.3499
2019-05-14T01:36:35.643Z,86.5500
2019-05-14T01:36:45.430Z,86.8000
2019-05-14T01:37:06.208Z,86.3751
2019-05-14T01:37:15.893Z,86.4000
2019-05-14T01:37:25.582Z,86.4750
2019-05-14T01:37:35.271Z,86.7250
2019-05-14T01:37:44.939Z,86.4750
2019-05-14T01:37:56.831Z,86.4500
2019-05-14T01:38:06.551Z,86.7500
2019-05-14T01:38:16.273Z,79.8250
2019-05-14T01:38:26.009Z,79.5500
2019-05-14T01:38:34.693Z,59.8000
2019-05-14T01:38:46.592Z,66.0750
2019-05-14T01:38:56.273Z,66.2250
2019-05-14T01:39:04.919Z,66.1250
2019-05-14T01:39:16.829Z,66.3000
2019-05-14T01:39:26.588Z,66.0250
2019-05-14T01:39:36.285Z,66.1250
2019-05-14T01:39:46.020Z,66.2250
2019-05-14T01:39:55.753Z,66.0500
2019-05-14T01:40:05.460Z,66.0749
2019-05-14T01:40:25.150Z,65.7250
2019-05-14T01:40:37.610Z,62.6501
2019-05-14T01:40:45.224Z,56.1522
2019-05-14T01:40:55.089Z,30.1499
2019-05-14T01:41:04.771Z,105.1555
2019-05-14T01:41:25.441Z,78.3251
2019-05-14T01:41:35.120Z,78.6001
2019-05-14T01:41:45.072Z,74.6999
2019-05-14T01:41:54.772Z,156.1565
2019-05-14T01:42:06.659Z,116.3254
2019-05-14T01:42:16.319Z,121.0004
2019-05-14T01:42:32.108Z,121.2504
2019-05-14T01:42:35.946Z,121.3505
2019-05-14T01:42:44.980Z,121.0753
2019-05-14T01:43:05.484Z,121.2004
2019-05-14T01:43:15.154Z,120.9254
2019-05-14T01:43:24.891Z,121.7257
2019-05-14T01:43:36.754Z,121.1504
2019-05-14T01:43:45.473Z,121.0254
2019-05-14T01:43:55.187Z,121.3504
2019-05-14T01:44:04.883Z,121.0000
2019-05-14T01:44:17.729Z,42.3750
2019-05-14T01:44:24.727Z,42.4250
2019-05-14T01:44:36.547Z,42.2500
2019-05-14T01:44:45.047Z,42.3750
2019-05-14T01:44:54.918Z,43.9250
2019-05-14T01:45:06.743Z,44.3250
2019-05-14T01:45:27.029Z,55.2500
2019-05-14T01:45:28.322Z,55.3250
2019-05-14T01:45:35.074Z,55.2500
2019-05-14T01:45:44.733Z,55.1500
2019-05-14T01:45:56.585Z,55.4750
2019-05-14T01:46:06.392Z,55.4250
2019-05-14T01:46:16.336Z,55.2500
2019-05-14T01:46:25.074Z,55.3500
2019-05-14T01:46:34.724Z,55.2500
2019-05-14T01:46:45.461Z,55.2250
2019-05-14T01:46:56.347Z,55.5250
2019-05-14T01:47:06.108Z,55.1750
2019-05-14T01:47:15.838Z,55.3750
2019-05-14T01:47:25.552Z,55.3250
2019-05-14T01:47:35.268Z,55.3250
2019-05-14T01:47:44.997Z,55.0500
2019-05-14T01:47:54.698Z,34.8743
2019-05-14T01:48:06.556Z,33.5000
2019-05-14T01:48:15.285Z,34.8991
2019-05-14T01:48:26.131Z,39.9000
2019-05-14T01:48:35.814Z,39.9000
2019-05-14T01:48:55.135Z,39.6250
2019-05-14T01:49:04.845Z,39.6750
2019-05-14T01:49:15.807Z,39.9501
2019-05-14T01:49:25.536Z,39.8500
2019-05-14T01:49:36.221Z,39.8750
2019-05-14T01:49:45.932Z,39.8750
2019-05-14T01:49:55.651Z,39.8500
2019-05-14T01:50:05.358Z,39.7750
2019-05-14T01:50:15.062Z,39.7000
2019-05-14T01:50:24.732Z,39.9000
2019-05-14T01:50:35.490Z,39.7500
2019-05-14T01:50:45.196Z,39.6750
2019-05-14T01:50:54.935Z,39.8000
2019-05-14T01:51:05.641Z,39.8000
2019-05-14T01:51:15.463Z,39.8250
2019-05-14T01:51:25.226Z,39.8500
2019-05-14T01:51:35.032Z,39.8500
2019-05-14T01:51:44.731Z,39.7750
2019-05-14T01:51:56.853Z,39.9250
2019-05-14T01:52:06.546Z,39.8500
2019-05-14T01:52:16.283Z,39.8250
2019-05-14T01:52:24.827Z,39.7000
2019-05-14T01:52:36.711Z,39.7250
2019-05-14T01:52:46.424Z,39.8500
2019-05-14T01:52:56.471Z,39.7750
2019-05-14T01:53:06.165Z,40.3250
2019-05-14T01:53:15.863Z,39.9500
2019-05-14T01:53:25.703Z,40.0000
2019-05-14T01:53:36.413Z,40.4250
2019-05-14T01:53:54.825Z,39.9000
2019-05-14T01:54:06.764Z,50.4059
2019-05-14T01:54:16.427Z,54.6250
2019-05-14T01:54:26.115Z,54.4500
2019-05-14T01:54:35.831Z,54.4000
2019-05-14T01:54:45.541Z,54.8750
2019-05-14T01:54:55.276Z,45.1250
2019-05-14T01:55:05.007Z,136.4254
2019-05-14T01:55:14.955Z,135.4504
2019-05-14T01:55:26.821Z,115.9755
2019-05-14T01:55:36.535Z,112.8254
2019-05-14T01:55:45.215Z,114.0001
2019-05-14T01:55:55.278Z,112.8254
2019-05-14T01:56:05.970Z,112.6504
2019-05-14T01:56:15.702Z,112.8253
2019-05-14T01:56:25.414Z,113.1754
2019-05-14T01:56:35.157Z,112.8754
2019-05-14T01:56:44.831Z,112.5004
2019-05-14T01:56:56.721Z,112.9504
2019-05-14T01:57:06.453Z,113.0504
2019-05-14T01:57:16.151Z,111.6504
2019-05-14T01:57:25.842Z,110.9504
2019-05-14T01:57:35.541Z,111.4254
2019-05-14T01:57:45.239Z,162.5754
2019-05-14T01:57:55.006Z,165.4501
2019-05-14T01:58:05.672Z,163.2007
2019-05-14T01:58:15.381Z,120.0754
2019-05-14T01:58:25.097Z,120.1254
2019-05-14T01:58:34.764Z,120.0254
2019-05-14T01:58:46.655Z,120.2254
2019-05-14T01:58:56.624Z,120.7754
2019-05-14T01:59:06.363Z,120.2754
2019-05-14T01:59:15.072Z,120.3504
2019-05-14T01:59:24.746Z,120.5004
2019-05-14T01:59:36.575Z,120.4254
2019-05-14T01:59:54.969Z,120.3254
2019-05-14T02:00:05.651Z,120.7254
2019-05-14T02:00:16.394Z,120.8754
2019-05-14T02:00:26.144Z,120.9753
2019-05-14T02:00:34.976Z,223.1240
2019-05-14T02:00:46.867Z,221.5254
2019-05-14T02:00:55.391Z,222.0005
2019-05-14T02:01:06.104Z,224.4249
2019-05-14T02:01:15.816Z,221.6754
2019-05-14T02:01:25.534Z,221.6254
2019-05-14T02:01:35.215Z,221.7751
2019-05-14T02:01:44.921Z,223.8749
2019-05-14T02:01:56.822Z,220.8253
2019-05-14T02:02:06.500Z,214.2999
2019-05-14T02:02:16.198Z,212.6004
2019-05-14T02:02:25.864Z,190.7260
2019-05-14T02:02:35.573Z,188.6254
2019-05-14T02:02:56.738Z,186.1508
2019-05-14T02:03:06.442Z,182.7754
2019-05-14T02:03:16.121Z,183.0002
2019-05-14T02:03:29.045Z,183.5504
2019-05-14T02:03:35.853Z,118.8719
2019-05-14T02:03:45.523Z,103.7004
2019-05-14T02:03:55.223Z,103.8504
2019-05-14T02:04:04.874Z,30.8500
2019-05-14T02:04:16.719Z,37.9750
2019-05-14T02:04:26.379Z,38.1500
2019-05-14T02:04:44.750Z,37.0000
2019-05-14T02:04:56.725Z,34.9500
2019-05-14T02:05:06.518Z,41.9750
2019-05-14T02:05:16.207Z,46.4750
2019-05-14T02:05:25.911Z,50.8500
2019-05-14T02:05:35.671Z,51.4500
2019-05-14T02:05:45.393Z,50.9500
2019-05-14T02:05:56.062Z,50.2250
2019-05-14T02:06:05.752Z,49.9000
2019-05-14T02:06:15.463Z,50.1000
2019-05-14T02:06:25.150Z,50.0000